Time;durP1;ratioP1;P1;durP2;ratioP2;P2;SDS_P1;SDS_P2;PMS_P1;PMS_P2;Temp;Humidity;BMP_temperature;BMP_pressure;BME280_temperature;BME280_humidity;BME280_pressure;Samples;Min_cycle;Max_cycle;Signal;HPM_P1;HPM_P2
2023/01/14 00:01:26;;;;;;;0.60;0.60;;;;;;;6.67;100.00;97326.97;5022459;28;20053;-58
2023/01/14 00:03:53;;;;;;;0.52;0.52;;;;;;;6.15;100.00;97248.81;5024344;28;20076;-57
2023/01/14 00:06:26;;;;;;;0.60;0.60;;;;;;;6.64;100.00;97337.88;5024215;28;20049;-56
2023/01/14 00:08:58;;;;;;;0.50;0.50;;;;;;;6.62;100.00;97340.97;5024229;28;20115;-58
2023/01/14 00:11:58;;;;;;;1.67;1.58;;;;;;;6.44;100.00;97300.16;5023866;28;20049;-57
2023/01/14 00:14:21;;;;;;;0.60;0.60;;;;;;;6.58;100.00;97340.03;5022614;28;20049;-57
2023/01/14 00:16:52;;;;;;;0.50;0.50;;;;;;;6.56;100.00;97342.31;5023666;28;20065;-57
2023/01/14 00:19:19;;;;;;;0.60;0.60;;;;;;;6.57;100.00;97360.44;5023853;28;20049;-58
2023/01/14 00:21:46;;;;;;;0.50;0.50;;;;;;;6.25;100.00;97280.59;5023581;28;20057;-58
2023/01/14 00:24:14;;;;;;;0.60;0.60;;;;;;;6.61;100.00;97336.59;5023869;28;20533;-59
2023/01/14 00:26:42;;;;;;;0.80;0.80;;;;;;;6.59;100.00;97336.13;5023418;28;20069;-59
2023/01/14 00:29:18;;;;;;;0.70;0.70;;;;;;;6.42;100.00;97314.25;5023810;28;20479;-57
2023/01/14 00:31:46;;;;;;;0.50;0.50;;;;;;;6.56;100.00;97325.78;5023846;28;20123;-57
2023/01/14 00:34:13;;;;;;;0.60;0.60;;;;;;;6.60;100.00;97326.75;5023683;28;20049;-57
2023/01/14 00:36:42;;;;;;;0.52;0.52;;;;;;;6.28;100.00;97277.16;5023346;28;20505;-57
2023/01/14 00:39:09;;;;;;;0.50;0.50;;;;;;;6.66;100.00;97325.38;5023333;28;20053;-57
2023/01/14 00:41:36;;;;;;;0.60;0.60;;;;;;;6.67;100.00;97321.47;5023612;28;20482;-58
2023/01/14 00:44:03;;;;;;;0.60;0.60;;;;;;;6.46;100.00;97287.69;5023724;28;20297;-57
2023/01/14 00:46:32;;;;;;;0.50;0.50;;;;;;;6.09;100.00;97261.16;5023528;28;20045;-58
2023/01/14 00:49:00;;;;;;;0.60;0.60;;;;;;;6.54;100.00;97322.59;5023573;28;20520;-57
2023/01/14 00:51:28;;;;;;;4.13;0.90;;;;;;;6.51;100.00;97316.94;5023063;28;20057;-57
2023/01/14 00:53:55;;;;;;;1.27;1.17;;;;;;;6.26;100.00;97295.97;5024074;28;20104;-58
2023/01/14 00:56:22;;;;;;;0.55;0.55;;;;;;;6.51;100.00;97316.94;5023106;28;20140;-58
2023/01/14 00:58:50;;;;;;;0.60;0.60;;;;;;;6.42;100.00;97297.75;5023558;28;20049;-57
2023/01/14 01:01:17;;;;;;;0.60;0.60;;;;;;;6.52;100.00;97308.34;5023285;28;20524;-57
2023/01/14 01:03:51;;;;;;;0.50;0.50;;;;;;;6.52;100.00;97302.84;5026074;28;20436;-57
2023/01/14 01:06:20;;;;;;;0.50;0.50;;;;;;;6.49;100.00;97309.03;5027086;28;20080;-57
2023/01/14 01:08:48;;;;;;;0.60;0.60;;;;;;;6.50;100.00;97305.13;5027005;28;20053;-57
2023/01/14 01:11:16;;;;;;;0.50;0.50;;;;;;;6.57;100.00;97305.41;5025437;28;20049;-57
2023/01/14 01:13:43;;;;;;;0.60;0.60;;;;;;;6.59;100.00;97307.81;5027277;28;20053;-57
2023/01/14 01:16:15;;;;;;;0.60;0.60;;;;;;;6.61;100.00;97309.06;5025143;28;20140;-57
2023/01/14 01:18:43;;;;;;;0.60;0.60;;;;;;;6.65;100.00;97312.78;5025698;28;20049;-57
2023/01/14 01:21:15;;;;;;;0.60;0.60;;;;;;;6.55;100.00;97302.19;5026742;28;20111;-58
2023/01/14 01:23:42;;;;;;;0.60;0.60;;;;;;;6.59;100.00;97289.34;5026435;28;20053;-57
2023/01/14 01:26:22;;;;;;;1.05;1.05;;;;;;;6.61;100.00;97295.31;5026453;28;20567;-58
2023/01/14 01:28:51;;;;;;;0.60;0.60;;;;;;;6.57;100.00;97285.31;5026642;28;20601;-58
2023/01/14 01:31:19;;;;;;;0.60;0.60;;;;;;;6.18;100.00;97215.13;5026565;28;20157;-59
2023/01/14 01:33:45;;;;;;;0.68;0.68;;;;;;;6.52;100.00;97258.00;5027158;28;20088;-57
2023/01/14 01:36:15;;;;;;;4.10;3.90;;;;;;;6.67;100.00;97271.94;5024935;28;20106;-57
2023/01/14 01:38:42;;;;;;;0.60;0.60;;;;;;;6.68;100.00;97281.81;5026930;28;20146;-57
2023/01/14 01:41:18;;;;;;;0.60;0.60;;;;;;;6.67;100.00;97271.16;5026441;28;20053;-59
2023/01/14 01:43:56;;;;;;;0.50;0.50;;;;;;;6.64;100.00;97278.13;5025245;28;20479;-57
2023/01/14 01:46:22;;;;;;;1.27;1.25;;;;;;;6.63;100.00;97271.00;5024609;28;20049;-58
2023/01/14 01:48:49;;;;;;;0.60;0.60;;;;;;;6.67;100.00;97266.44;5026191;28;20164;-57
2023/01/14 01:51:20;;;;;;;2.47;1.60;;;;;;;6.64;100.00;97267.09;5025902;28;20045;-56
2023/01/14 01:53:51;;;;;;;0.80;0.80;;;;;;;6.70;100.00;97270.47;5024926;28;20142;-57
2023/01/14 01:56:22;;;;;;;0.60;0.60;;;;;;;6.58;100.00;97262.97;5024617;28;20053;-58
2023/01/14 01:58:51;;;;;;;3.80;3.50;;;;;;;6.56;100.00;97265.25;5041109;28;20083;-57
2023/01/14 02:01:18;;;;;;;0.60;0.60;;;;;;;6.09;100.00;97195.16;5055734;28;20121;-57
2023/01/14 02:03:48;;;;;;;1.38;1.33;;;;;;;6.53;100.00;97259.63;5066673;28;20064;-57
2023/01/14 02:06:16;;;;;;;0.60;0.60;;;;;;;6.51;100.00;97268.22;5065859;28;20052;-57
2023/01/14 02:08:50;;;;;;;1.23;1.15;;;;;;;6.54;100.00;97256.53;5066692;28;20071;-58
2023/01/14 02:11:35;;;;;;;0.60;0.60;;;;;;;6.59;100.00;97258.28;5065401;28;20044;-58
2023/01/14 02:14:15;;;;;;;1.95;1.85;;;;;;;6.52;100.00;97258.81;5065325;28;20500;-58
2023/01/14 02:16:51;;;;;;;1.23;1.23;;;;;;;6.50;100.00;97254.78;5065364;28;20041;-56
2023/01/14 02:19:59;;;;;;;0.60;0.60;;;;;;;6.56;100.00;97248.72;5065776;28;20044;-57
2023/01/14 02:22:31;;;;;;;0.60;0.60;;;;;;;6.56;100.00;97250.72;5065434;28;20056;-58
2023/01/14 02:24:58;;;;;;;2.15;2.05;;;;;;;6.66;100.00;97242.81;5065536;28;20106;-57
2023/01/14 02:27:36;;;;;;;0.60;0.60;;;;;;;6.36;100.00;97227.59;5065059;28;20056;-57
2023/01/14 02:30:32;;;;;;;0.55;0.55;;;;;;;6.21;100.00;97186.97;5064064;28;20143;-57
2023/01/14 02:33:20;;;;;;;0.60;0.60;;;;;;;6.62;100.00;97236.41;5064796;28;20048;-56
2023/01/14 02:35:51;;;;;;;0.60;0.60;;;;;;;6.65;100.00;97243.97;5065364;28;20060;-57
2023/01/14 02:38:20;;;;;;;0.60;0.60;;;;;;;6.67;100.00;97238.91;5065199;28;20056;-58
2023/01/14 02:40:58;;;;;;;0.60;0.60;;;;;;;6.62;100.00;97252.91;5065049;28;20084;-57
2023/01/14 02:46:34;;;;;;;2.20;2.15;;;;;;;6.44;100.00;97240.44;5064246;28;20052;-59
2023/01/14 02:49:04;;;;;;;0.50;0.50;;;;;;;6.52;100.00;97241.50;5064205;28;20068;-58
2023/01/14 02:51:32;;;;;;;1.40;1.40;;;;;;;6.48;100.00;97246.88;5064553;28;20091;-58
2023/01/14 02:53:59;;;;;;;1.15;1.15;;;;;;;6.08;100.00;97249.38;5065355;28;20048;-57
2023/01/14 02:56:26;;;;;;;7.22;2.05;;;;;;;5.09;100.00;97141.47;5064527;28;20113;-57
2023/01/14 02:59:01;;;;;;;0.60;0.60;;;;;;;5.45;100.00;97235.09;5074739;28;20526;-57
2023/01/14 03:01:52;;;;;;;0.60;0.60;;;;;;;5.58;100.00;97251.31;5084991;28;20116;-59
2023/01/14 03:05:04;;;;;;;1.45;1.35;;;;;;;5.57;100.00;97254.38;5084856;28;20144;-58
2023/01/14 03:07:40;;;;;;;0.88;0.88;;;;;;;4.82;100.00;97185.84;5084856;28;20056;-58
2023/01/14 03:10:25;;;;;;;3.13;2.97;;;;;;;5.21;100.00;97260.41;5085123;28;20489;-57
2023/01/14 03:13:20;;;;;;;0.50;0.50;;;;;;;5.16;100.00;97254.28;5084908;28;20083;-57
2023/01/14 03:16:10;;;;;;;0.80;0.80;;;;;;;4.91;100.00;97176.44;5083588;28;20052;-58
2023/01/14 03:18:39;;;;;;;0.50;0.50;;;;;;;5.55;100.00;97262.16;5084761;28;20055;-59
2023/01/14 03:21:12;;;;;;;0.60;0.60;;;;;;;5.72;100.00;97253.81;5084560;28;20052;-57
2023/01/14 03:23:45;;;;;;;0.73;0.73;;;;;;;5.68;100.00;97247.38;5084574;28;20109;-57
2023/01/14 03:26:14;;;;;;;0.50;0.50;;;;;;;5.88;100.00;97260.38;5082352;28;20455;-58
2023/01/14 03:28:47;;;;;;;0.60;0.60;;;;;;;5.91;100.00;97233.00;5084954;28;20055;-58
2023/01/14 03:31:20;;;;;;;0.50;0.50;;;;;;;6.05;100.00;97261.00;5083531;28;20048;-58
2023/01/14 03:33:49;;;;;;;;;;;;;;;6.14;100.00;97259.03;5083297;28;20052;-58
2023/01/14 03:36:19;;;;;;;1.42;1.38;;;;;;;5.73;100.00;97225.19;5082961;28;20481;-59
2023/01/14 03:38:55;;;;;;;0.50;0.50;;;;;;;6.11;100.00;97254.19;5084524;28;20087;-58
2023/01/14 03:44:18;;;;;;;0.60;0.60;;;;;;;6.24;100.00;97260.56;5084175;28;20128;-57
2023/01/14 03:46:45;;;;;;;4.32;2.28;;;;;;;6.02;100.00;97258.94;5084295;28;20571;-57
2023/01/14 03:49:12;;;;;;;1.42;1.38;;;;;;;5.81;100.00;97235.31;5082815;28;20109;-58
2023/01/14 03:51:56;;;;;;;0.70;0.70;;;;;;;6.06;100.00;97256.31;5082773;28;20136;-59
2023/01/14 03:54:43;;;;;;;;;;;;;;;6.26;100.00;97260.22;5084852;28;20151;-57
2023/01/14 03:57:19;;;;;;;1.13;1.13;;;;;;;6.20;100.00;97256.84;5084068;28;19956;-58
2023/01/14 04:00:02;;;;;;;0.60;0.60;;;;;;;6.33;100.00;97269.53;5067411;28;20079;-59
2023/01/14 04:02:30;;;;;;;0.60;0.60;;;;;;;6.32;100.00;97254.16;5064057;28;20053;-58
2023/01/14 04:04:58;;;;;;;0.80;0.80;;;;;;;6.37;100.00;97251.19;5062516;28;20137;-58
2023/01/14 04:07:26;;;;;;;1.42;1.42;;;;;;;6.21;100.00;97246.66;5064321;28;20129;-57
2023/01/14 04:09:52;;;;;;;0.60;0.60;;;;;;;6.20;100.00;97262.34;5062653;28;20459;-59
2023/01/14 04:12:19;;;;;;;1.58;1.15;;;;;;;5.89;100.00;97190.50;5063781;28;20064;-58
2023/01/14 04:17:38;;;;;;;0.55;0.55;;;;;;;5.82;100.00;97141.56;5062161;28;20102;-59
2023/01/14 04:20:06;;;;;;;0.50;0.50;;;;;;;6.37;100.00;97228.41;5064063;28;20504;-58
2023/01/14 04:22:33;;;;;;;0.50;0.50;;;;;;;6.61;100.00;97276.03;5062184;28;20052;-60
2023/01/14 04:24:59;;;;;;;0.50;0.50;;;;;;;6.62;100.00;97269.41;5063764;28;20057;-57
2023/01/14 04:27:26;;;;;;;0.60;0.60;;;;;;;6.45;100.00;97253.06;5063681;28;20052;-58
2023/01/14 04:29:53;;;;;;;0.50;0.50;;;;;;;6.62;100.00;97274.09;5063544;28;20131;-61
2023/01/14 04:32:19;;;;;;;0.60;0.60;;;;;;;6.20;100.00;97207.34;5063702;28;20619;-56
2023/01/14 04:34:46;;;;;;;0.50;0.50;;;;;;;6.63;100.00;97273.78;5063859;28;20450;-58
2023/01/14 04:37:13;;;;;;;0.50;0.50;;;;;;;6.03;100.00;97175.34;5064980;28;20044;-58
2023/01/14 04:39:39;;;;;;;0.60;0.60;;;;;;;6.82;100.00;97268.56;5067433;28;20488;-57
2023/01/14 04:42:26;;;;;;;0.70;0.70;;;;;;;6.81;100.00;97266.13;5067220;28;20109;-59
2023/01/14 04:44:58;;;;;;;3.65;2.08;;;;;;;6.75;100.00;97276.53;5067162;28;20060;-57
2023/01/14 04:47:25;;;;;;;0.52;0.52;;;;;;;6.77;100.00;97271.50;5065786;28;20507;-58
2023/01/14 04:49:52;;;;;;;0.60;0.60;;;;;;;6.76;100.00;97275.41;5066895;28;20577;-57
2023/01/14 04:52:19;;;;;;;0.60;0.60;;;;;;;6.70;100.00;97257.50;5065549;28;20064;-58
2023/01/14 04:54:46;;;;;;;0.50;0.50;;;;;;;6.83;100.00;97274.88;5067304;28;20041;-57
2023/01/14 04:57:13;;;;;;;0.60;0.60;;;;;;;6.83;100.00;97270.16;5065765;28;20080;-56
2023/01/14 04:59:39;;;;;;;1.65;1.55;;;;;;;6.81;100.00;97266.91;5082608;28;20086;-57
2023/01/14 05:02:06;;;;;;;0.60;0.60;;;;;;;6.36;100.00;97205.56;5087415;28;20048;-58
2023/01/14 05:04:33;;;;;;;0.60;0.60;;;;;;;6.83;100.00;97272.91;5087160;28;20486;-57
2023/01/14 05:07:01;;;;;;;0.60;0.60;;;;;;;6.88;100.00;97271.88;5087192;28;20205;-59
2023/01/14 05:09:29;;;;;;;0.52;0.52;;;;;;;6.91;100.00;97274.75;5086805;28;20086;-57
2023/01/14 05:11:56;;;;;;;0.60;0.60;;;;;;;6.92;100.00;97273.63;5087181;28;20052;-57
2023/01/14 05:14:23;;;;;;;0.60;0.60;;;;;;;6.89;100.00;97263.28;5086910;28;20337;-59
2023/01/14 05:16:49;;;;;;;0.60;0.60;;;;;;;6.76;100.00;97242.38;5087005;28;20047;-57
2023/01/14 05:19:16;;;;;;;0.60;0.60;;;;;;;6.81;100.00;97257.88;5085281;28;20048;-58
2023/01/14 05:21:43;;;;;;;1.95;1.85;;;;;;;6.14;100.00;97162.78;5086851;28;20048;-58
2023/01/14 05:24:10;;;;;;;0.60;0.60;;;;;;;6.89;100.00;97263.28;5086609;28;20139;-57
2023/01/14 05:26:36;;;;;;;0.60;0.60;;;;;;;6.96;100.00;97260.78;5086341;28;20060;-59
2023/01/14 05:29:03;;;;;;;0.60;0.60;;;;;;;6.92;100.00;97259.88;5086339;28;20510;-57
2023/01/14 05:31:29;;;;;;;0.60;0.60;;;;;;;6.57;100.00;97192.56;5086486;28;20075;-58
2023/01/14 05:33:57;;;;;;;0.60;0.60;;;;;;;6.80;100.00;97221.28;5086832;28;20121;-57
2023/01/14 05:36:23;;;;;;;0.60;0.60;;;;;;;6.99;100.00;97260.09;5085233;28;20053;-57
2023/01/14 05:38:50;;;;;;;0.70;0.70;;;;;;;6.95;100.00;97261.94;5086629;28;20070;-58
2023/01/14 05:41:17;;;;;;;0.50;0.50;;;;;;;6.89;100.00;97255.00;5086200;28;20052;-58
2023/01/14 05:46:28;;;;;;;0.60;0.60;;;;;;;6.51;100.00;97196.69;5083348;28;20081;-59
2023/01/14 05:48:55;;;;;;;5.68;5.30;;;;;;;6.59;100.00;97209.53;5045524;28;20049;-60
2023/01/14 05:51:22;;;;;;;0.60;0.60;;;;;;;6.85;100.00;97245.84;5045905;28;20587;-57
2023/01/14 05:53:48;;;;;;;1.83;1.73;;;;;;;6.94;100.00;97254.78;5045299;28;20069;-59
2023/01/14 05:56:15;;;;;;;0.60;0.60;;;;;;;6.36;100.00;97172.56;5061015;28;20123;-57
2023/01/14 05:58:42;;;;;;;0.60;0.60;;;;;;;6.89;100.00;97268.78;5061293;28;20052;-60
2023/01/14 06:06:48;;;;;;;0.60;0.60;;;;;;;6.24;100.00;97158.78;5086059;28;20966;-57
2023/01/14 06:09:17;;;;;;;0.75;0.75;;;;;;;6.88;100.00;97267.19;5085669;28;20059;-57
2023/01/14 06:12:01;;;;;;;0.70;0.70;;;;;;;6.41;100.00;97186.09;5085570;28;20495;-59
2023/01/14 06:14:30;;;;;;;0.93;0.93;;;;;;;6.92;100.00;97256.28;5085758;28;20432;-58
2023/01/14 06:16:57;;;;;;;0.60;0.60;;;;;;;6.91;100.00;97260.19;5085620;28;20487;-58
2023/01/14 06:19:24;;;;;;;0.60;0.60;;;;;;;6.89;100.00;97257.75;5085454;28;20131;-58
2023/01/14 06:21:51;;;;;;;2.25;2.15;;;;;;;6.89;100.00;97259.75;5085526;28;20059;-59
2023/01/14 06:24:18;;;;;;;1.00;0.93;;;;;;;6.93;100.00;97253.19;5085476;28;20144;-57
2023/01/14 06:26:44;;;;;;;0.60;0.60;;;;;;;4.51;100.00;96874.28;5083652;28;20048;-59
2023/01/14 06:29:12;;;;;;;0.60;0.60;;;;;;;6.95;100.00;97250.91;5084270;28;20047;-59
2023/01/14 06:31:40;;;;;;;2.47;1.05;;;;;;;6.99;100.00;97260.09;5085172;28;20056;-57
2023/01/14 06:34:07;;;;;;;0.95;0.95;;;;;;;6.29;100.00;97155.81;5060084;28;20075;-60
2023/01/14 06:36:34;;;;;;;1.70;1.70;;;;;;;6.96;100.00;97236.00;5076146;28;20515;-57
2023/01/14 06:39:02;;;;;;;0.63;0.63;;;;;;;7.02;100.00;97253.91;5063135;28;20127;-58
2023/01/14 06:41:28;;;;;;;0.60;0.60;;;;;;;7.02;100.00;97256.66;5062885;28;20099;-58
2023/01/14 06:43:55;;;;;;;0.73;0.73;;;;;;;6.24;100.00;97142.28;5059389;28;20145;-57
2023/01/14 06:46:21;;;;;;;4.35;4.15;;;;;;;7.10;100.00;97253.00;5064169;28;20094;-56
2023/01/14 06:48:48;;;;;;;0.90;0.90;;;;;;;7.20;100.00;97247.03;5065026;28;20048;-57
2023/01/14 06:51:17;;;;;;;0.82;0.82;;;;;;;6.96;100.00;97241.50;5063007;28;20098;-56
2023/01/14 06:53:44;;;;;;;1.90;1.80;;;;;;;6.87;100.00;97204.19;5063353;28;20060;-56
2023/01/14 06:56:13;;;;;;;0.70;0.70;;;;;;;7.32;100.00;97255.28;5064310;28;20056;-56
2023/01/14 06:58:41;;;;;;;0.60;0.60;;;;;;;7.27;100.00;97241.75;5064332;28;20075;-56
2023/01/14 07:01:11;;;;;;;3.05;2.85;;;;;;;7.10;100.00;97192.41;5057021;28;20059;-57
2023/01/14 07:03:38;;;;;;;0.88;0.88;;;;;;;7.43;100.00;97252.88;5054045;28;20063;-56
2023/01/14 07:06:06;;;;;;;0.60;0.60;;;;;;;7.49;100.00;97252.31;5059790;28;20049;-57
2023/01/14 07:08:33;;;;;;;0.55;0.55;;;;;;;7.23;100.00;97199.50;5044916;28;20087;-58
2023/01/14 07:11:00;;;;;;;0.70;0.70;;;;;;;7.58;100.00;97252.19;5050284;28;20563;-56
2023/01/14 07:13:27;;;;;;;0.63;0.63;;;;;;;7.30;100.00;97208.00;5064670;28;20044;-58
2023/01/14 07:15:53;;;;;;;0.70;0.70;;;;;;;7.69;100.00;97248.63;5058606;28;20069;-56
2023/01/14 07:18:20;;;;;;;2.25;2.15;;;;;;;6.77;100.00;97106.34;5042913;28;20057;-57
2023/01/14 07:20:47;;;;;;;0.70;0.70;;;;;;;7.73;100.00;97238.50;5056266;28;20060;-57
2023/01/14 07:23:14;;;;;;;0.70;0.70;;;;;;;7.37;100.00;97197.22;5064209;28;20048;-57
2023/01/14 07:25:40;;;;;;;2.20;2.15;;;;;;;7.86;100.00;97257.78;5058678;28;20183;-59
2023/01/14 07:28:07;;;;;;;3.15;3.05;;;;;;;7.74;100.00;97229.06;5044457;28;20045;-58
2023/01/14 07:30:35;;;;;;;0.70;0.70;;;;;;;4.99;100.00;96783.09;5043669;28;20072;-58
2023/01/14 07:33:02;;;;;;;0.60;0.60;;;;;;;8.11;100.00;97281.44;5046959;28;20084;-57
2023/01/14 07:35:29;;;;;;;0.70;0.70;;;;;;;8.23;100.00;97267.63;5077376;28;20040;-57
2023/01/14 07:37:57;;;;;;;0.60;0.60;;;;;;;7.49;100.00;97144.81;5077044;28;20049;-59
2023/01/14 07:40:25;;;;;;;0.70;0.70;;;;;;;8.36;99.48;97260.91;5063142;28;20052;-58
2023/01/14 07:43:00;;;;;;;0.65;0.65;;;;;;;8.43;99.69;97272.13;5057890;28;20063;-60
2023/01/14 07:45:27;;;;;;;0.70;0.70;;;;;;;8.09;99.28;97223.03;5056391;28;20049;-58
2023/01/14 07:47:55;;;;;;;0.70;0.70;;;;;;;7.99;97.08;97207.78;5062298;28;20434;-59
2023/01/14 07:50:23;;;;;;;2.17;2.08;;;;;;;8.48;94.89;97258.09;5063115;28;20049;-60
2023/01/14 07:52:53;;;;;;;1.20;1.20;;;;;;;8.27;94.89;97224.34;5049887;28;20101;-60
2023/01/14 07:55:21;;;;;;;0.70;0.70;;;;;;;8.60;94.24;97274.63;5050025;28;20412;-60
2023/01/14 07:57:48;;;;;;;1.92;1.80;;;;;;;8.48;94.95;97280.19;5052770;28;20071;-59
2023/01/14 08:00:16;;;;;;;0.70;0.70;;;;;;;8.59;96.08;97287.63;5051319;28;20083;-59
2023/01/14 08:02:42;;;;;;;0.70;0.70;;;;;;;8.19;96.01;97214.28;5046545;28;20134;-57
2023/01/14 08:05:09;;;;;;;1.98;1.88;;;;;;;8.61;95.01;97262.41;5061798;28;20204;-56
2023/01/14 08:07:36;;;;;;;0.90;0.90;;;;;;;8.84;93.80;97280.00;5061072;28;20041;-57
2023/01/14 08:10:04;;;;;;;5.10;4.35;;;;;;;8.57;93.39;97272.53;5063262;28;20581;-60
2023/01/14 08:12:34;;;;;;;8.38;5.32;;;;;;;7.74;97.20;97245.63;5063728;28;20056;-55
2023/01/14 08:15:01;;;;;;;6.75;3.83;;;;;;;7.74;100.00;97303.50;5066520;28;20063;-57
2023/01/14 08:17:28;;;;;;;8.38;5.90;;;;;;;7.38;100.00;97298.00;5063050;28;20040;-58
2023/01/14 08:19:55;;;;;;;1.17;1.17;;;;;;;7.18;100.00;97303.59;5063318;28;20048;-56
2023/01/14 08:22:21;;;;;;;2.97;2.70;;;;;;;6.67;100.00;97285.69;5065950;28;20078;-56
2023/01/14 08:24:48;;;;;;;10.48;5.70;;;;;;;6.50;100.00;97309.81;5066769;28;20533;-56
2023/01/14 08:27:15;;;;;;;2.05;1.88;;;;;;;6.40;100.00;97294.56;5066864;28;20079;-61
2023/01/14 08:29:41;;;;;;;9.70;4.25;;;;;;;6.28;100.00;97296.41;5055078;28;20424;-56
2023/01/14 08:32:08;;;;;;;7.20;5.07;;;;;;;6.23;100.00;97316.69;5061040;28;20059;-54
2023/01/14 08:34:35;;;;;;;2.67;1.80;;;;;;;6.35;100.00;97318.72;5066908;28;20499;-57
2023/01/14 08:37:01;;;;;;;2.15;2.05;;;;;;;6.37;100.00;97317.22;5066764;28;20053;-60
2023/01/14 08:39:28;;;;;;;6.45;4.72;;;;;;;6.19;100.00;97310.25;5057380;28;20044;-57
2023/01/14 08:41:56;;;;;;;5.28;2.58;;;;;;;5.79;100.00;97245.84;5058281;28;20048;-58
2023/01/14 08:44:23;;;;;;;1.05;1.05;;;;;;;6.48;100.00;97312.91;5065418;28;20656;-56
2023/01/14 08:46:49;;;;;;;0.98;0.98;;;;;;;6.55;100.00;97279.34;5066481;28;20048;-55
2023/01/14 08:49:16;;;;;;;6.22;5.65;;;;;;;6.79;100.00;97313.28;5064493;28;20124;-57
2023/01/14 08:51:43;;;;;;;0.80;0.80;;;;;;;6.88;100.00;97311.22;5058785;28;20049;-58
2023/01/14 08:54:09;;;;;;;1.52;1.50;;;;;;;6.91;100.00;97321.56;5050716;28;20113;-60
2023/01/14 08:56:36;;;;;;;11.30;6.07;;;;;;;6.72;100.00;97291.00;5048025;28;20056;-58
2023/01/14 08:59:03;;;;;;;2.60;1.45;;;;;;;5.99;100.00;97218.38;5055419;28;20080;-62
2023/01/14 09:01:30;;;;;;;9.50;5.05;;;;;;;6.72;100.00;97313.00;5047176;28;20284;-62
2023/01/14 09:04:10;;;;;;;4.63;2.78;;;;;;;6.31;100.00;97280.06;5057580;28;20045;-60
2023/01/14 09:17:04;;;;;;;33.10;7.55;;;;;;;6.21;100.00;97313.50;5064553;28;20043;-56
2023/01/14 09:17:40;;;;;;;6.72;2.85;;;;;;;6.89;100.00;97309.28;5048267;28;20578;-55
2023/01/14 09:20:14;;;;;;;0.93;0.93;;;;;;;6.41;100.00;97257.63;5064441;28;20515;-56
2023/01/14 09:22:40;;;;;;;6.47;5.97;;;;;;;6.51;100.00;97231.66;5049425;28;20435;-65
2023/01/14 09:25:07;;;;;;;2.25;2.08;;;;;;;6.88;100.00;97272.69;5054452;28;20056;-60
2023/01/14 09:27:51;;;;;;;0.60;0.60;;;;;;;7.15;100.00;97299.59;5065216;28;20491;-56
2023/01/14 09:30:17;;;;;;;7.78;3.78;;;;;;;7.21;100.00;97297.41;5060579;28;20827;-56
2023/01/14 09:32:44;;;;;;;1.95;1.77;;;;;;;7.31;100.00;97292.28;5060932;28;20049;-55
2023/01/14 09:35:12;;;;;;;0.65;0.65;;;;;;;7.05;100.00;97244.16;5051399;28;20041;-64
2023/01/14 09:37:39;;;;;;;0.90;0.90;;;;;;;7.42;100.00;97293.44;5046579;28;20448;-55
2023/01/14 09:40:06;;;;;;;0.60;0.60;;;;;;;7.41;100.00;97296.53;5047781;28;20057;-64
2023/01/14 09:42:39;;;;;;;3.75;3.55;;;;;;;7.46;100.00;97299.84;5046442;28;20060;-59
2023/01/14 09:45:26;;;;;;;2.75;2.55;;;;;;;7.43;100.00;97272.97;5054801;28;20075;-57
2023/01/14 09:47:56;;;;;;;2.95;2.65;;;;;;;7.45;100.00;97292.75;5063763;28;20056;-59
2023/01/14 09:50:55;;;;;;;1.98;1.92;;;;;;;7.36;100.00;97289.31;5051891;28;20113;-60
2023/01/14 09:53:49;;;;;;;7.28;4.65;;;;;;;7.41;100.00;97291.81;5059475;28;20056;-62
2023/01/14 09:56:31;;;;;;;0.60;0.60;;;;;;;7.34;100.00;97299.84;5062087;28;20078;-57
2023/01/14 09:59:06;;;;;;;2.42;1.73;;;;;;;7.30;100.00;97273.34;5049291;28;20084;-60
2023/01/14 10:01:42;;;;;;;0.80;0.80;;;;;;;7.43;100.00;97289.53;5059066;28;20110;-60
2023/01/14 10:04:29;;;;;;;0.68;0.68;;;;;;;7.46;100.00;97294.34;5042386;28;20483;-57
2023/01/14 10:06:58;;;;;;;5.03;2.88;;;;;;;7.46;100.00;97294.34;5055024;28;20066;-60
2023/01/14 10:09:30;;;;;;;0.60;0.60;;;;;;;7.42;100.00;97287.91;5052257;28;20045;-54
2023/01/14 10:11:59;;;;;;;0.65;0.65;;;;;;;7.39;100.00;97294.13;5065627;28;20470;-59
2023/01/14 10:14:34;;;;;;;1.25;1.17;;;;;;;7.31;100.00;97281.25;5075967;28;20624;-60
2023/01/14 10:17:09;;;;;;;1.38;1.27;;;;;;;6.77;100.00;97205.44;5046734;28;20045;-60
2023/01/14 10:19:45;;;;;;;5.38;0.93;;;;;;;6.87;100.00;97234.47;5043934;28;20077;-57
2023/01/14 10:22:43;;;;;;;0.60;0.60;;;;;;;7.44;100.00;97276.56;5044777;28;20053;-57
2023/01/14 10:25:19;;;;;;;3.22;2.67;;;;;;;7.33;100.00;97256.91;5057155;28;20052;-61
2023/01/14 10:27:53;;;;;;;1.88;1.77;;;;;;;7.43;100.00;97281.25;5057188;28;20049;-63
2023/01/14 10:30:28;;;;;;;1.40;1.40;;;;;;;7.49;100.00;97271.59;5063817;28;20057;-60
2023/01/14 10:32:55;;;;;;;0.60;0.60;;;;;;;7.44;100.00;97255.31;5055183;28;20483;-61
2023/01/14 10:35:33;;;;;;;2.00;1.90;;;;;;;7.64;100.00;97250.81;5054346;28;20331;-62
2023/01/14 10:38:01;;;;;;;1.75;1.65;;;;;;;7.02;100.00;97245.63;5056073;28;20055;-58
2023/01/14 10:40:29;;;;;;;3.42;3.22;;;;;;;7.23;100.00;97268.38;5053629;28;20481;-57
2023/01/14 10:42:58;;;;;;;5.32;4.88;;;;;;;6.95;100.00;97261.94;5048202;28;20053;-60
2023/01/14 10:45:25;;;;;;;1.63;1.52;;;;;;;6.94;100.00;97260.31;5048825;28;20718;-58
2023/01/14 10:48:02;;;;;;;2.65;2.45;;;;;;;6.86;100.00;97258.44;5063139;28;20048;-61
2023/01/14 10:50:30;;;;;;;5.60;2.25;;;;;;;6.07;100.00;97159.75;5062972;28;20088;-57
2023/01/14 10:53:15;;;;;;;1.55;1.15;;;;;;;6.28;100.00;97214.72;5060374;28;20135;-61
2023/01/14 10:55:52;;;;;;;1.25;1.23;;;;;;;6.32;100.00;97157.91;5064180;28;20086;-57
2023/01/14 10:58:28;;;;;;;2.38;2.22;;;;;;;7.10;100.00;97249.41;5065228;28;20045;-61
2023/01/14 11:01:14;;;;;;;0.90;0.90;;;;;;;7.10;100.00;97233.72;5064163;28;20481;-58
2023/01/14 11:03:47;;;;;;;0.60;0.60;;;;;;;7.34;100.00;97247.50;5063567;28;20135;-61
2023/01/14 11:06:17;;;;;;;0.60;0.60;;;;;;;7.01;100.00;97175.19;5063404;28;20052;-61
2023/01/14 11:08:46;;;;;;;0.60;0.60;;;;;;;7.54;100.00;97241.06;5064635;28;20056;-61
2023/01/14 11:11:16;;;;;;;1.42;1.40;;;;;;;7.71;100.00;97240.78;5064754;28;20057;-56
2023/01/14 11:13:45;;;;;;;0.60;0.60;;;;;;;7.84;100.00;97243.56;5063682;28;20064;-61
2023/01/14 11:16:21;;;;;;;0.60;0.60;;;;;;;7.70;100.00;97233.69;5064032;28;20133;-57
2023/01/14 11:18:50;;;;;;;0.60;0.60;;;;;;;7.60;100.00;97234.16;5064524;28;20067;-59
2023/01/14 11:21:20;;;;;;;0.57;0.57;;;;;;;7.50;100.00;97237.41;5064182;28;20053;-60
2023/01/14 11:23:58;;;;;;;0.50;0.50;;;;;;;7.36;100.00;97178.25;5064331;28;20074;-60
2023/01/14 11:26:28;;;;;;;3.40;2.78;;;;;;;7.65;100.00;97236.69;5064248;28;20056;-61
2023/01/14 11:29:06;;;;;;;4.53;3.10;;;;;;;6.97;100.00;97236.81;5064510;28;20052;-60
2023/01/14 11:31:38;;;;;;;8.50;3.38;;;;;;;7.01;100.00;97238.53;5062535;28;20060;-56
2023/01/14 11:34:39;;;;;;;6.63;1.70;;;;;;;6.88;100.00;97233.31;5064318;28;20044;-61
2023/01/14 11:37:09;;;;;;;7.53;6.10;;;;;;;6.75;100.00;97238.00;5041134;28;20052;-57
2023/01/14 11:39:45;;;;;;;3.65;3.40;;;;;;;6.10;100.00;97141.78;5064066;28;20048;-61
2023/01/14 11:42:37;;;;;;;9.50;5.00;;;;;;;6.48;100.00;97235.09;5064258;28;20044;-61
2023/01/14 11:45:12;;;;;;;0.50;0.50;;;;;;;6.53;100.00;97232.91;5064160;28;20048;-57
2023/01/14 11:47:56;;;;;;;6.32;6.00;;;;;;;6.86;100.00;97235.63;5062393;28;20057;-61
2023/01/14 11:50:32;;;;;;;0.55;0.55;;;;;;;6.80;100.00;97204.75;5064195;28;20052;-62
2023/01/14 11:53:06;;;;;;;0.55;0.55;;;;;;;7.34;100.00;97228.22;5064646;28;20048;-62
2023/01/14 11:55:36;;;;;;;0.98;0.98;;;;;;;7.45;100.00;97229.34;5063749;28;20049;-57
2023/01/14 11:58:20;;;;;;;4.78;3.80;;;;;;;6.66;100.00;97187.75;5064127;28;20052;-62
2023/01/14 12:00:54;;;;;;;2.03;1.88;;;;;;;6.71;100.00;97228.84;5068933;28;20067;-59
2023/01/14 12:03:47;;;;;;;1.00;1.00;;;;;;;6.71;100.00;97228.84;5084254;28;20562;-62
2023/01/14 12:06:22;;;;;;;1.83;1.73;;;;;;;6.60;100.00;97229.59;5082075;28;20052;-58
2023/01/14 12:09:04;;;;;;;0.80;0.80;;;;;;;6.20;100.00;97171.59;5084442;28;20125;-62
2023/01/14 12:11:42;;;;;;;0.60;0.60;;;;;;;6.74;100.00;97233.66;5083623;28;20097;-56
2023/01/14 12:17:37;;;;;;;2.85;2.65;;;;;;;6.67;100.00;97214.13;5083759;28;20052;-57
2023/01/14 12:20:08;;;;;;;0.70;0.70;;;;;;;6.59;100.00;97228.78;5078824;28;20059;-57
2023/01/14 12:22:51;;;;;;;0.60;0.60;;;;;;;6.93;100.00;97220.16;5083991;28;20075;-61